Lula, Mississippi
Current Conditions -  °F | °C
As of 4:55 PM on Wednesday 22 Oct 2014 (Local Time) from KCKM Reporting Station
Clear Clear  
Wind Chill: 68°   Ceiling: Unl
Heat Index: 68°   Visibility: 9mi
Dew Point: 43°   Wind: 10mph
Humidity: 40%   Direction: 20°NNE
Pressure: 30.16"   Gusts: NA
Location:  34.45°N, 90.48°W
Report Text: KCKM 222155Z AUTO 02009KT 9SM CLR 20/06 A3016 RMK AO1
Loading
Personal Weather Stations






























Interactive Weather Map
Tropical Storm Tracking
New forecast layout! Learn more

10-Day Weather Forecast

Advertisements
Track Severe Weather on mobile